sensor_id;sensor_type;location;lat;lon;timestamp;temperature;humidity
10788;DHT22;5446;50.826;4.380;2023-10-08T00:00:46;16.50;99.90
10788;DHT22;5446;50.826;4.380;2023-10-08T00:03:15;16.50;99.90
10788;DHT22;5446;50.826;4.380;2023-10-08T00:05:43;16.50;99.90
10788;DHT22;5446;50.826;4.380;2023-10-08T00:08:09;16.50;99.90
10788;DHT22;5446;50.826;4.380;2023-10-08T00:10:36;16.50;99.90
10788;DHT22;5446;50.826;4.380;2023-10-08T00:13:04;16.50;99.90
10788;DHT22;5446;50.826;4.380;2023-10-08T00:15:33;16.40;99.90
10788;DHT22;5446;50.826;4.380;2023-10-08T00:18:01;16.40;99.90
10788;DHT22;5446;50.826;4.380;2023-10-08T00:20:27;16.30;99.90
10788;DHT22;5446;50.826;4.380;2023-10-08T00:23:01;16.30;99.90
10788;DHT22;5446;50.826;4.380;2023-10-08T00:25:28;16.30;99.90
10788;DHT22;5446;50.826;4.380;2023-10-08T00:27:56;16.30;99.90
10788;DHT22;5446;50.826;4.380;2023-10-08T00:30:22;16.20;99.90
10788;DHT22;5446;50.826;4.380;2023-10-08T00:32:48;16.20;99.90
10788;DHT22;5446;50.826;4.380;2023-10-08T00:35:14;16.20;99.90
10788;DHT22;5446;50.826;4.380;2023-10-08T00:37:40;16.20;99.90
10788;DHT22;5446;50.826;4.380;2023-10-08T00:40:07;16.20;99.90
10788;DHT22;5446;50.826;4.380;2023-10-08T00:42:40;16.20;99.90
10788;DHT22;5446;50.826;4.380;2023-10-08T00:45:12;16.10;99.90
10788;DHT22;5446;50.826;4.380;2023-10-08T00:47:40;16.10;99.90
10788;DHT22;5446;50.826;4.380;2023-10-08T00:50:09;16.10;99.90
10788;DHT22;5446;50.826;4.380;2023-10-08T00:52:46;16.10;99.90
10788;DHT22;5446;50.826;4.380;2023-10-08T00:55:24;16.10;99.90
10788;DHT22;5446;50.826;4.380;2023-10-08T00:57:59;16.00;99.90
10788;DHT22;5446;50.826;4.380;2023-10-08T01:00:34;16.10;99.90
10788;DHT22;5446;50.826;4.380;2023-10-08T01:03:06;16.00;99.90
10788;DHT22;5446;50.826;4.380;2023-10-08T01:05:41;16.10;99.90
10788;DHT22;5446;50.826;4.380;2023-10-08T01:08:14;16.10;99.90
10788;DHT22;5446;50.826;4.380;2023-10-08T01:10:48;16.00;99.90
10788;DHT22;5446;50.826;4.380;2023-10-08T01:13:15;16.00;99.90
10788;DHT22;5446;50.826;4.380;2023-10-08T01:15:45;16.00;99.90
10788;DHT22;5446;50.826;4.380;2023-10-08T01:18:13;16.00;99.90
10788;DHT22;5446;50.826;4.380;2023-10-08T01:20:44;16.00;99.90
10788;DHT22;5446;50.826;4.380;2023-10-08T01:23:11;15.90;99.90
10788;DHT22;5446;50.826;4.380;2023-10-08T01:25:46;15.90;99.90
10788;DHT22;5446;50.826;4.380;2023-10-08T01:28:19;15.90;99.90
10788;DHT22;5446;50.826;4.380;2023-10-08T01:30:57;15.90;99.90
10788;DHT22;5446;50.826;4.380;2023-10-08T01:33:28;15.80;99.90
10788;DHT22;5446;50.826;4.380;2023-10-08T01:35:57;15.80;99.90
10788;DHT22;5446;50.826;4.380;2023-10-08T01:38:32;15.70;99.90
10788;DHT22;5446;50.826;4.380;2023-10-08T01:41:00;15.70;99.90
10788;DHT22;5446;50.826;4.380;2023-10-08T01:43:46;15.70;99.90
10788;DHT22;5446;50.826;4.380;2023-10-08T01:46:12;15.70;99.90
10788;DHT22;5446;50.826;4.380;2023-10-08T01:48:38;15.60;99.90
10788;DHT22;5446;50.826;4.380;2023-10-08T01:51:05;15.60;99.90
10788;DHT22;5446;50.826;4.380;2023-10-08T01:53:37;15.60;99.90
10788;DHT22;5446;50.826;4.380;2023-10-08T01:56:04;15.60;99.90
10788;DHT22;5446;50.826;4.380;2023-10-08T01:58:30;15.50;99.90
10788;DHT22;5446;50.826;4.380;2023-10-08T02:00:56;15.50;99.90
10788;DHT22;5446;50.826;4.380;2023-10-08T02:03:26;15.50;99.90
10788;DHT22;5446;50.826;4.380;2023-10-08T02:05:55;15.50;99.90
10788;DHT22;5446;50.826;4.380;2023-10-08T02:08:24;15.50;99.90
10788;DHT22;5446;50.826;4.380;2023-10-08T02:10:52;15.50;99.90
10788;DHT22;5446;50.826;4.380;2023-10-08T02:13:18;15.40;99.90
10788;DHT22;5446;50.826;4.380;2023-10-08T02:15:48;15.40;99.90
10788;DHT22;5446;50.826;4.380;2023-10-08T02:18:15;15.40;99.90
10788;DHT22;5446;50.826;4.380;2023-10-08T02:20:42;15.40;99.90
10788;DHT22;5446;50.826;4.380;2023-10-08T02:23:08;15.40;99.90
10788;DHT22;5446;50.826;4.380;2023-10-08T02:25:38;15.30;99.90
10788;DHT22;5446;50.826;4.380;2023-10-08T02:28:06;15.30;99.90
10788;DHT22;5446;50.826;4.380;2023-10-08T02:30:34;15.30;99.90
10788;DHT22;5446;50.826;4.380;2023-10-08T02:33:00;15.30;99.90
10788;DHT22;5446;50.826;4.380;2023-10-08T02:35:26;15.30;99.90
10788;DHT22;5446;50.826;4.380;2023-10-08T02:37:52;15.30;99.90
10788;DHT22;5446;50.826;4.380;2023-10-08T02:40:20;15.30;99.90
10788;DHT22;5446;50.826;4.380;2023-10-08T02:42:56;15.30;99.90
10788;DHT22;5446;50.826;4.380;2023-10-08T02:45:28;15.30;99.90
10788;DHT22;5446;50.826;4.380;2023-10-08T02:47:55;15.30;99.90
10788;DHT22;5446;50.826;4.380;2023-10-08T02:50:21;15.30;99.90
10788;DHT22;5446;50.826;4.380;2023-10-08T02:52:50;15.30;99.90
10788;DHT22;5446;50.826;4.380;2023-10-08T02:55:19;15.40;99.90
10788;DHT22;5446;50.826;4.380;2023-10-08T02:58:02;15.40;99.90
10788;DHT22;5446;50.826;4.380;2023-10-08T03:00:29;15.40;99.90
10788;DHT22;5446;50.826;4.380;2023-10-08T03:03:01;15.40;99.90
10788;DHT22;5446;50.826;4.380;2023-10-08T03:05:32;15.40;99.90
10788;DHT22;5446;50.826;4.380;2023-10-08T03:08:02;15.40;99.90
10788;DHT22;5446;50.826;4.380;2023-10-08T03:10:33;15.40;99.90
10788;DHT22;5446;50.826;4.380;2023-10-08T03:12:59;15.40;99.90
10788;DHT22;5446;50.826;4.380;2023-10-08T03:15:32;15.40;99.90
10788;DHT22;5446;50.826;4.380;2023-10-08T03:18:17;15.40;99.90
10788;DHT22;5446;50.826;4.380;2023-10-08T03:20:46;15.30;99.90
10788;DHT22;5446;50.826;4.380;2023-10-08T03:23:16;15.30;99.90
10788;DHT22;5446;50.826;4.380;2023-10-08T03:25:56;15.30;99.90
10788;DHT22;5446;50.826;4.380;2023-10-08T03:28:30;15.30;99.90
10788;DHT22;5446;50.826;4.380;2023-10-08T03:31:01;15.30;99.90
10788;DHT22;5446;50.826;4.380;2023-10-08T03:33:39;15.30;99.90
10788;DHT22;5446;50.826;4.380;2023-10-08T03:36:07;15.30;99.90
10788;DHT22;5446;50.826;4.380;2023-10-08T03:38:52;15.30;99.90
10788;DHT22;5446;50.826;4.380;2023-10-08T03:41:27;15.30;99.90
10788;DHT22;5446;50.826;4.380;2023-10-08T03:43:54;15.30;99.90
10788;DHT22;5446;50.826;4.380;2023-10-08T03:46:38;15.30;99.90
10788;DHT22;5446;50.826;4.380;2023-10-08T03:49:15;15.30;99.90
10788;DHT22;5446;50.826;4.380;2023-10-08T03:51:44;15.20;99.90
10788;DHT22;5446;50.826;4.380;2023-10-08T03:54:10;15.20;99.90
10788;DHT22;5446;50.826;4.380;2023-10-08T03:56:44;15.20;99.90
10788;DHT22;5446;50.826;4.380;2023-10-08T03:59:16;15.20;99.90
10788;DHT22;5446;50.826;4.380;2023-10-08T04:02:01;15.10;99.90
10788;DHT22;5446;50.826;4.380;2023-10-08T04:04:43;15.10;99.90
10788;DHT22;5446;50.826;4.380;2023-10-08T04:07:40;15.10;99.90
10788;DHT22;5446;50.826;4.380;2023-10-08T04:10:29;15.00;99.90
10788;DHT22;5446;50.826;4.380;2023-10-08T04:13:21;15.00;99.90
10788;DHT22;5446;50.826;4.380;2023-10-08T04:15:47;15.00;99.90
10788;DHT22;5446;50.826;4.380;2023-10-08T04:18:12;15.00;99.90
10788;DHT22;5446;50.826;4.380;2023-10-08T04:20:39;15.00;99.90
10788;DHT22;5446;50.826;4.380;2023-10-08T04:23:07;14.90;99.90
10788;DHT22;5446;50.826;4.380;2023-10-08T04:25:46;14.90;99.90
10788;DHT22;5446;50.826;4.380;2023-10-08T04:28:19;14.90;99.90
10788;DHT22;5446;50.826;4.380;2023-10-08T04:30:46;14.90;99.90
10788;DHT22;5446;50.826;4.380;2023-10-08T04:33:13;14.80;99.90
10788;DHT22;5446;50.826;4.380;2023-10-08T04:35:42;14.80;99.90
10788;DHT22;5446;50.826;4.380;2023-10-08T04:38:24;14.80;99.90
10788;DHT22;5446;50.826;4.380;2023-10-08T04:40:54;14.80;99.90
10788;DHT22;5446;50.826;4.380;2023-10-08T04:43:22;14.80;99.90
10788;DHT22;5446;50.826;4.380;2023-10-08T04:45:54;14.70;99.90
10788;DHT22;5446;50.826;4.380;2023-10-08T04:48:19;14.80;99.90
10788;DHT22;5446;50.826;4.380;2023-10-08T04:50:59;14.80;99.90
10788;DHT22;5446;50.826;4.380;2023-10-08T04:53:29;14.80;99.90
10788;DHT22;5446;50.826;4.380;2023-10-08T04:56:04;14.70;99.90
10788;DHT22;5446;50.826;4.380;2023-10-08T04:58:40;14.70;99.90
10788;DHT22;5446;50.826;4.380;2023-10-08T05:01:07;14.70;99.90
10788;DHT22;5446;50.826;4.380;2023-10-08T05:03:53;14.70;99.90
10788;DHT22;5446;50.826;4.380;2023-10-08T05:06:25;14.70;99.90
10788;DHT22;5446;50.826;4.380;2023-10-08T05:09:10;14.70;99.90
10788;DHT22;5446;50.826;4.380;2023-10-08T05:11:36;14.70;99.90
10788;DHT22;5446;50.826;4.380;2023-10-08T05:14:13;14.70;99.90
10788;DHT22;5446;50.826;4.380;2023-10-08T05:16:56;14.70;99.90
10788;DHT22;5446;50.826;4.380;2023-10-08T05:19:29;14.70;99.90
10788;DHT22;5446;50.826;4.380;2023-10-08T05:22:11;14.70;99.90
10788;DHT22;5446;50.826;4.380;2023-10-08T05:25:03;14.80;99.90
10788;DHT22;5446;50.826;4.380;2023-10-08T05:27:40;14.70;99.90
10788;DHT22;5446;50.826;4.380;2023-10-08T05:32:59;14.70;99.90
10788;DHT22;5446;50.826;4.380;2023-10-08T05:35:45;14.70;99.90
10788;DHT22;5446;50.826;4.380;2023-10-08T05:38:18;14.70;99.90
10788;DHT22;5446;50.826;4.380;2023-10-08T05:41:13;14.70;99.90
10788;DHT22;5446;50.826;4.380;2023-10-08T05:43:59;14.60;99.90
10788;DHT22;5446;50.826;4.380;2023-10-08T05:46:49;14.60;99.90
10788;DHT22;5446;50.826;4.380;2023-10-08T05:49:22;14.60;99.90
10788;DHT22;5446;50.826;4.380;2023-10-08T05:51:57;14.60;99.90
10788;DHT22;5446;50.826;4.380;2023-10-08T05:54:29;14.60;99.90
10788;DHT22;5446;50.826;4.380;2023-10-08T05:59:54;14.60;99.90
10788;DHT22;5446;50.826;4.380;2023-10-08T06:02:21;14.60;99.90
10788;DHT22;5446;50.826;4.380;2023-10-08T06:05:07;14.70;99.90
10788;DHT22;5446;50.826;4.380;2023-10-08T06:07:49;14.70;99.90
10788;DHT22;5446;50.826;4.380;2023-10-08T06:10:19;14.60;99.90
10788;DHT22;5446;50.826;4.380;2023-10-08T06:18:17;14.70;99.90
10788;DHT22;5446;50.826;4.380;2023-10-08T06:20:49;14.70;99.90
10788;DHT22;5446;50.826;4.380;2023-10-08T06:23:20;14.80;99.90
10788;DHT22;5446;50.826;4.380;2023-10-08T06:25:57;14.70;99.90
10788;DHT22;5446;50.826;4.380;2023-10-08T06:28:25;14.80;99.90
10788;DHT22;5446;50.826;4.380;2023-10-08T06:30:53;14.80;99.90
10788;DHT22;5446;50.826;4.380;2023-10-08T06:33:20;14.90;99.90
10788;DHT22;5446;50.826;4.380;2023-10-08T06:35:46;14.90;99.90
10788;DHT22;5446;50.826;4.380;2023-10-08T06:38:30;14.90;99.90
10788;DHT22;5446;50.826;4.380;2023-10-08T06:41:03;15.00;99.90
10788;DHT22;5446;50.826;4.380;2023-10-08T06:43:36;15.00;99.90
10788;DHT22;5446;50.826;4.380;2023-10-08T06:46:03;15.00;99.90
10788;DHT22;5446;50.826;4.380;2023-10-08T06:48:29;15.00;99.90
10788;DHT22;5446;50.826;4.380;2023-10-08T06:50:55;15.10;99.90
10788;DHT22;5446;50.826;4.380;2023-10-08T06:53:33;15.10;99.90
10788;DHT22;5446;50.826;4.380;2023-10-08T06:55:59;15.20;99.90
10788;DHT22;5446;50.826;4.380;2023-10-08T06:58:30;15.20;99.90
10788;DHT22;5446;50.826;4.380;2023-10-08T07:00:57;15.20;99.90
10788;DHT22;5446;50.826;4.380;2023-10-08T07:03:24;15.20;99.90
10788;DHT22;5446;50.826;4.380;2023-10-08T07:05:51;15.20;99.90
10788;DHT22;5446;50.826;4.380;2023-10-08T07:08:24;15.20;99.90
10788;DHT22;5446;50.826;4.380;2023-10-08T07:10:51;15.30;99.90
10788;DHT22;5446;50.826;4.380;2023-10-08T07:13:17;15.30;99.90
10788;DHT22;5446;50.826;4.380;2023-10-08T07:15:45;15.40;99.90
10788;DHT22;5446;50.826;4.380;2023-10-08T07:18:13;15.50;99.90
10788;DHT22;5446;50.826;4.380;2023-10-08T07:20:44;15.50;99.90
10788;DHT22;5446;50.826;4.380;2023-10-08T07:23:11;15.60;99.90
10788;DHT22;5446;50.826;4.380;2023-10-08T07:25:52;15.60;99.90
10788;DHT22;5446;50.826;4.380;2023-10-08T07:28:21;15.60;99.90
10788;DHT22;5446;50.826;4.380;2023-10-08T07:30:47;15.60;99.90
10788;DHT22;5446;50.826;4.380;2023-10-08T07:33:15;15.70;99.90
10788;DHT22;5446;50.826;4.380;2023-10-08T07:35:47;15.70;99.90
10788;DHT22;5446;50.826;4.380;2023-10-08T07:38:38;15.80;99.90
10788;DHT22;5446;50.826;4.380;2023-10-08T07:41:05;15.80;99.90
10788;DHT22;5446;50.826;4.380;2023-10-08T07:43:31;15.90;99.90
10788;DHT22;5446;50.826;4.380;2023-10-08T07:45:58;16.00;99.90
10788;DHT22;5446;50.826;4.380;2023-10-08T07:48:25;15.90;99.90
10788;DHT22;5446;50.826;4.380;2023-10-08T07:50:56;15.90;99.90
10788;DHT22;5446;50.826;4.380;2023-10-08T07:53:25;15.90;99.90
10788;DHT22;5446;50.826;4.380;2023-10-08T07:56:06;16.00;99.90
10788;DHT22;5446;50.826;4.380;2023-10-08T07:58:35;16.00;99.90
10788;DHT22;5446;50.826;4.380;2023-10-08T08:01:06;16.10;99.90
10788;DHT22;5446;50.826;4.380;2023-10-08T08:03:36;16.10;99.90
10788;DHT22;5446;50.826;4.380;2023-10-08T08:06:03;16.00;99.90
10788;DHT22;5446;50.826;4.380;2023-10-08T08:08:32;16.10;99.90
10788;DHT22;5446;50.826;4.380;2023-10-08T08:11:05;16.10;99.90
10788;DHT22;5446;50.826;4.380;2023-10-08T08:13:41;16.10;99.90
10788;DHT22;5446;50.826;4.380;2023-10-08T08:16:14;16.20;99.90
10788;DHT22;5446;50.826;4.380;2023-10-08T08:18:49;16.20;99.90
10788;DHT22;5446;50.826;4.380;2023-10-08T08:21:19;16.20;99.90
10788;DHT22;5446;50.826;4.380;2023-10-08T08:23:48;16.30;99.90
10788;DHT22;5446;50.826;4.380;2023-10-08T08:26:19;16.30;99.90
10788;DHT22;5446;50.826;4.380;2023-10-08T08:29:02;16.30;99.90
10788;DHT22;5446;50.826;4.380;2023-10-08T08:31:31;16.40;99.90
10788;DHT22;5446;50.826;4.380;2023-10-08T08:33:58;16.50;99.90
10788;DHT22;5446;50.826;4.380;2023-10-08T08:36:29;16.50;99.90
10788;DHT22;5446;50.826;4.380;2023-10-08T08:38:56;16.60;99.90
10788;DHT22;5446;50.826;4.380;2023-10-08T08:41:22;16.60;99.90
10788;DHT22;5446;50.826;4.380;2023-10-08T08:43:53;16.70;99.90
10788;DHT22;5446;50.826;4.380;2023-10-08T08:46:29;16.80;99.90
10788;DHT22;5446;50.826;4.380;2023-10-08T08:48:56;16.90;99.90
10788;DHT22;5446;50.826;4.380;2023-10-08T08:51:23;16.90;99.90
10788;DHT22;5446;50.826;4.380;2023-10-08T08:53:49;16.90;99.90
10788;DHT22;5446;50.826;4.380;2023-10-08T08:56:15;17.00;99.90
10788;DHT22;5446;50.826;4.380;2023-10-08T08:58:42;17.10;99.90
10788;DHT22;5446;50.826;4.380;2023-10-08T09:01:11;17.20;99.90
10788;DHT22;5446;50.826;4.380;2023-10-08T09:03:38;17.30;99.90
10788;DHT22;5446;50.826;4.380;2023-10-08T09:06:05;17.30;99.90
10788;DHT22;5446;50.826;4.380;2023-10-08T09:08:35;17.40;99.90
10788;DHT22;5446;50.826;4.380;2023-10-08T09:11:02;17.40;99.90
10788;DHT22;5446;50.826;4.380;2023-10-08T09:13:31;17.40;99.90
10788;DHT22;5446;50.826;4.380;2023-10-08T09:16:16;17.40;99.90
10788;DHT22;5446;50.826;4.380;2023-10-08T09:18:47;17.50;99.90
10788;DHT22;5446;50.826;4.380;2023-10-08T09:21:18;17.60;99.90
10788;DHT22;5446;50.826;4.380;2023-10-08T09:23:51;17.70;99.90
10788;DHT22;5446;50.826;4.380;2023-10-08T09:26:18;17.70;99.90
10788;DHT22;5446;50.826;4.380;2023-10-08T09:28:46;17.70;99.90
10788;DHT22;5446;50.826;4.380;2023-10-08T09:31:15;17.60;99.90
10788;DHT22;5446;50.826;4.380;2023-10-08T09:33:44;17.60;99.90
10788;DHT22;5446;50.826;4.380;2023-10-08T09:36:18;17.70;99.90
10788;DHT22;5446;50.826;4.380;2023-10-08T09:38:46;17.70;99.90
10788;DHT22;5446;50.826;4.380;2023-10-08T09:41:15;17.70;99.90
10788;DHT22;5446;50.826;4.380;2023-10-08T09:43:41;17.70;99.90
10788;DHT22;5446;50.826;4.380;2023-10-08T09:48:37;17.70;99.90
10788;DHT22;5446;50.826;4.380;2023-10-08T09:51:05;17.70;99.90
10788;DHT22;5446;50.826;4.380;2023-10-08T09:56:29;17.90;99.90
10788;DHT22;5446;50.826;4.380;2023-10-08T09:58:55;18.00;99.90
10788;DHT22;5446;50.826;4.380;2023-10-08T10:01:21;18.10;99.90
10788;DHT22;5446;50.826;4.380;2023-10-08T10:03:48;18.20;99.90
10788;DHT22;5446;50.826;4.380;2023-10-08T10:06:15;18.10;99.90
10788;DHT22;5446;50.826;4.380;2023-10-08T10:08:44;18.10;99.90
10788;DHT22;5446;50.826;4.380;2023-10-08T10:11:11;18.30;99.90
10788;DHT22;5446;50.826;4.380;2023-10-08T10:13:42;18.40;99.90
10788;DHT22;5446;50.826;4.380;2023-10-08T10:16:10;18.50;99.90
10788;DHT22;5446;50.826;4.380;2023-10-08T10:18:38;18.50;99.90
10788;DHT22;5446;50.826;4.380;2023-10-08T10:23:48;18.60;99.90
10788;DHT22;5446;50.826;4.380;2023-10-08T10:31:39;18.90;99.90
10788;DHT22;5446;50.826;4.380;2023-10-08T10:34:11;19.00;99.90
10788;DHT22;5446;50.826;4.380;2023-10-08T10:36:40;19.10;99.90
10788;DHT22;5446;50.826;4.380;2023-10-08T10:39:07;19.00;99.90
10788;DHT22;5446;50.826;4.380;2023-10-08T10:41:47;19.10;99.90
10788;DHT22;5446;50.826;4.380;2023-10-08T10:44:17;19.20;99.90
10788;DHT22;5446;50.826;4.380;2023-10-08T10:46:43;19.20;99.90
10788;DHT22;5446;50.826;4.380;2023-10-08T10:49:18;19.30;99.90
10788;DHT22;5446;50.826;4.380;2023-10-08T10:52:00;19.30;99.90
10788;DHT22;5446;50.826;4.380;2023-10-08T10:54:30;19.30;99.90
10788;DHT22;5446;50.826;4.380;2023-10-08T10:57:02;19.30;99.90
10788;DHT22;5446;50.826;4.380;2023-10-08T10:59:33;19.40;99.90
10788;DHT22;5446;50.826;4.380;2023-10-08T11:02:05;19.40;99.90
10788;DHT22;5446;50.826;4.380;2023-10-08T11:04:35;19.50;99.90
10788;DHT22;5446;50.826;4.380;2023-10-08T11:07:21;19.50;99.90
10788;DHT22;5446;50.826;4.380;2023-10-08T11:09:51;19.50;99.90
10788;DHT22;5446;50.826;4.380;2023-10-08T11:12:21;19.60;99.90
10788;DHT22;5446;50.826;4.380;2023-10-08T11:14:58;19.70;99.90
10788;DHT22;5446;50.826;4.380;2023-10-08T11:17:27;19.70;99.90
10788;DHT22;5446;50.826;4.380;2023-10-08T11:19:54;19.80;99.90
10788;DHT22;5446;50.826;4.380;2023-10-08T11:22:21;19.80;99.90
10788;DHT22;5446;50.826;4.380;2023-10-08T11:24:48;19.70;99.90
10788;DHT22;5446;50.826;4.380;2023-10-08T11:27:16;19.80;99.90
10788;DHT22;5446;50.826;4.380;2023-10-08T11:29:49;19.80;99.90
10788;DHT22;5446;50.826;4.380;2023-10-08T11:32:23;19.90;99.90
10788;DHT22;5446;50.826;4.380;2023-10-08T11:34:58;19.90;99.90
10788;DHT22;5446;50.826;4.380;2023-10-08T11:37:29;20.00;99.90
10788;DHT22;5446;50.826;4.380;2023-10-08T11:39:56;20.00;99.90
10788;DHT22;5446;50.826;4.380;2023-10-08T11:42:24;20.10;99.90
10788;DHT22;5446;50.826;4.380;2023-10-08T11:44:59;20.10;99.90
10788;DHT22;5446;50.826;4.380;2023-10-08T11:47:26;20.20;99.90
10788;DHT22;5446;50.826;4.380;2023-10-08T11:49:57;20.30;99.90
10788;DHT22;5446;50.826;4.380;2023-10-08T11:52:42;20.40;99.90
10788;DHT22;5446;50.826;4.380;2023-10-08T11:55:09;20.50;99.90
10788;DHT22;5446;50.826;4.380;2023-10-08T11:57:53;20.40;99.90
10788;DHT22;5446;50.826;4.380;2023-10-08T12:00:19;20.50;99.90
10788;DHT22;5446;50.826;4.380;2023-10-08T12:02:49;20.50;99.90
10788;DHT22;5446;50.826;4.380;2023-10-08T12:05:15;20.60;99.90
10788;DHT22;5446;50.826;4.380;2023-10-08T12:07:53;20.60;99.90
10788;DHT22;5446;50.826;4.380;2023-10-08T12:10:23;20.70;99.90
10788;DHT22;5446;50.826;4.380;2023-10-08T12:12:50;20.70;99.90
10788;DHT22;5446;50.826;4.380;2023-10-08T12:15:18;20.80;99.90
10788;DHT22;5446;50.826;4.380;2023-10-08T12:17:50;20.70;99.90
10788;DHT22;5446;50.826;4.380;2023-10-08T12:20:38;20.80;99.90
10788;DHT22;5446;50.826;4.380;2023-10-08T12:23:05;20.80;99.90
10788;DHT22;5446;50.826;4.380;2023-10-08T12:25:32;20.90;99.90
10788;DHT22;5446;50.826;4.380;2023-10-08T12:30:24;21.10;99.90
10788;DHT22;5446;50.826;4.380;2023-10-08T12:32:57;21.20;99.90
10788;DHT22;5446;50.826;4.380;2023-10-08T12:35:24;21.30;99.90
10788;DHT22;5446;50.826;4.380;2023-10-08T12:37:50;21.30;99.90
10788;DHT22;5446;50.826;4.380;2023-10-08T12:40:16;21.40;99.90
10788;DHT22;5446;50.826;4.380;2023-10-08T12:42:59;21.30;99.90
10788;DHT22;5446;50.826;4.380;2023-10-08T12:45:25;21.30;99.90
10788;DHT22;5446;50.826;4.380;2023-10-08T12:47:53;21.40;99.90
10788;DHT22;5446;50.826;4.380;2023-10-08T12:50:20;21.40;99.90
10788;DHT22;5446;50.826;4.380;2023-10-08T12:52:57;21.40;99.90
10788;DHT22;5446;50.826;4.380;2023-10-08T12:55:30;21.60;99.90
10788;DHT22;5446;50.826;4.380;2023-10-08T12:57:56;21.70;99.90
10788;DHT22;5446;50.826;4.380;2023-10-08T13:00:32;21.80;99.90
10788;DHT22;5446;50.826;4.380;2023-10-08T13:02:57;21.90;99.90
10788;DHT22;5446;50.826;4.380;2023-10-08T13:05:23;21.90;99.90
10788;DHT22;5446;50.826;4.380;2023-10-08T13:07:54;21.90;99.90
10788;DHT22;5446;50.826;4.380;2023-10-08T13:10:21;21.80;99.90
10788;DHT22;5446;50.826;4.380;2023-10-08T13:12:48;21.80;99.90
10788;DHT22;5446;50.826;4.380;2023-10-08T13:15:14;21.90;99.90
10788;DHT22;5446;50.826;4.380;2023-10-08T13:17:40;22.00;99.90
10788;DHT22;5446;50.826;4.380;2023-10-08T13:20:10;22.10;99.90
10788;DHT22;5446;50.826;4.380;2023-10-08T13:22:40;22.10;99.90
10788;DHT22;5446;50.826;4.380;2023-10-08T13:25:07;22.10;99.90
10788;DHT22;5446;50.826;4.380;2023-10-08T13:27:33;22.10;99.90
10788;DHT22;5446;50.826;4.380;2023-10-08T13:30:00;22.00;99.90
10788;DHT22;5446;50.826;4.380;2023-10-08T13:32:30;22.10;99.90
10788;DHT22;5446;50.826;4.380;2023-10-08T13:34:56;22.10;99.90
10788;DHT22;5446;50.826;4.380;2023-10-08T13:37:23;22.10;99.90
10788;DHT22;5446;50.826;4.380;2023-10-08T13:39:49;22.10;99.90
10788;DHT22;5446;50.826;4.380;2023-10-08T13:42:14;21.90;99.90
10788;DHT22;5446;50.826;4.380;2023-10-08T13:44:46;22.00;99.90
10788;DHT22;5446;50.826;4.380;2023-10-08T13:47:12;22.00;99.90
10788;DHT22;5446;50.826;4.380;2023-10-08T13:49:41;22.00;99.90
10788;DHT22;5446;50.826;4.380;2023-10-08T13:52:09;21.90;99.90
10788;DHT22;5446;50.826;4.380;2023-10-08T13:54:34;21.80;99.90
10788;DHT22;5446;50.826;4.380;2023-10-08T13:57:05;21.90;99.90
10788;DHT22;5446;50.826;4.380;2023-10-08T13:59:34;21.90;99.90
10788;DHT22;5446;50.826;4.380;2023-10-08T14:02:01;21.90;99.90
10788;DHT22;5446;50.826;4.380;2023-10-08T14:04:40;21.80;99.90
10788;DHT22;5446;50.826;4.380;2023-10-08T14:07:12;21.90;99.90
10788;DHT22;5446;50.826;4.380;2023-10-08T14:09:45;21.90;99.90
10788;DHT22;5446;50.826;4.380;2023-10-08T14:12:12;22.00;99.90
10788;DHT22;5446;50.826;4.380;2023-10-08T14:14:40;22.00;99.90
10788;DHT22;5446;50.826;4.380;2023-10-08T14:17:12;22.10;99.90
10788;DHT22;5446;50.826;4.380;2023-10-08T14:19:42;22.20;99.90
10788;DHT22;5446;50.826;4.380;2023-10-08T14:22:18;22.20;99.90
10788;DHT22;5446;50.826;4.380;2023-10-08T14:24:47;22.30;99.90
10788;DHT22;5446;50.826;4.380;2023-10-08T14:27:24;22.30;99.90
10788;DHT22;5446;50.826;4.380;2023-10-08T14:29:59;22.40;99.90
10788;DHT22;5446;50.826;4.380;2023-10-08T14:32:30;22.50;99.90
10788;DHT22;5446;50.826;4.380;2023-10-08T14:34:58;22.70;99.90
10788;DHT22;5446;50.826;4.380;2023-10-08T14:37:24;22.80;99.90
10788;DHT22;5446;50.826;4.380;2023-10-08T14:40:08;22.80;99.90
10788;DHT22;5446;50.826;4.380;2023-10-08T14:42:53;22.90;99.90
10788;DHT22;5446;50.826;4.380;2023-10-08T14:45:24;22.90;99.90
10788;DHT22;5446;50.826;4.380;2023-10-08T14:47:54;22.80;99.90
10788;DHT22;5446;50.826;4.380;2023-10-08T14:50:21;22.70;99.90
10788;DHT22;5446;50.826;4.380;2023-10-08T14:52:48;22.70;99.90
10788;DHT22;5446;50.826;4.380;2023-10-08T14:55:14;22.70;99.90
10788;DHT22;5446;50.826;4.380;2023-10-08T14:57:40;22.60;99.90
10788;DHT22;5446;50.826;4.380;2023-10-08T15:00:08;22.60;99.90
10788;DHT22;5446;50.826;4.380;2023-10-08T15:02:38;22.70;99.90
10788;DHT22;5446;50.826;4.380;2023-10-08T15:05:05;22.70;99.90
10788;DHT22;5446;50.826;4.380;2023-10-08T15:07:32;22.70;99.90
10788;DHT22;5446;50.826;4.380;2023-10-08T15:09:58;22.60;99.90
10788;DHT22;5446;50.826;4.380;2023-10-08T15:12:26;22.50;99.90
10788;DHT22;5446;50.826;4.380;2023-10-08T15:14:52;22.50;99.90
10788;DHT22;5446;50.826;4.380;2023-10-08T15:17:18;22.50;99.90
10788;DHT22;5446;50.826;4.380;2023-10-08T15:19:44;22.50;99.90
10788;DHT22;5446;50.826;4.380;2023-10-08T15:22:12;22.50;99.90
10788;DHT22;5446;50.826;4.380;2023-10-08T15:24:38;22.50;99.90
10788;DHT22;5446;50.826;4.380;2023-10-08T15:27:06;22.40;99.90
10788;DHT22;5446;50.826;4.380;2023-10-08T15:29:32;22.40;99.90
10788;DHT22;5446;50.826;4.380;2023-10-08T15:31:59;22.40;99.90
10788;DHT22;5446;50.826;4.380;2023-10-08T15:34:25;22.40;99.90
10788;DHT22;5446;50.826;4.380;2023-10-08T15:36:55;22.40;99.90
10788;DHT22;5446;50.826;4.380;2023-10-08T15:39:21;22.50;99.90
10788;DHT22;5446;50.826;4.380;2023-10-08T15:41:50;22.50;99.90
10788;DHT22;5446;50.826;4.380;2023-10-08T15:44:17;22.50;99.90
10788;DHT22;5446;50.826;4.380;2023-10-08T15:46:49;22.40;99.90
10788;DHT22;5446;50.826;4.380;2023-10-08T15:49:16;22.40;99.90
10788;DHT22;5446;50.826;4.380;2023-10-08T15:51:45;22.40;99.90
10788;DHT22;5446;50.826;4.380;2023-10-08T15:54:12;22.40;99.90
10788;DHT22;5446;50.826;4.380;2023-10-08T15:56:38;22.40;99.90
10788;DHT22;5446;50.826;4.380;2023-10-08T15:59:04;22.30;99.90
10788;DHT22;5446;50.826;4.380;2023-10-08T16:01:29;22.30;99.90
10788;DHT22;5446;50.826;4.380;2023-10-08T16:03:55;22.30;99.90
10788;DHT22;5446;50.826;4.380;2023-10-08T16:06:21;22.30;99.90
10788;DHT22;5446;50.826;4.380;2023-10-08T16:08:47;22.30;99.90
10788;DHT22;5446;50.826;4.380;2023-10-08T16:11:14;22.20;99.90
10788;DHT22;5446;50.826;4.380;2023-10-08T16:13:40;22.20;99.90
10788;DHT22;5446;50.826;4.380;2023-10-08T16:16:08;22.20;99.90
10788;DHT22;5446;50.826;4.380;2023-10-08T16:18:37;22.10;99.90
10788;DHT22;5446;50.826;4.380;2023-10-08T16:21:06;22.10;99.90
10788;DHT22;5446;50.826;4.380;2023-10-08T16:23:35;22.10;99.90
10788;DHT22;5446;50.826;4.380;2023-10-08T16:26:03;22.00;99.90
10788;DHT22;5446;50.826;4.380;2023-10-08T16:28:28;22.00;99.90
10788;DHT22;5446;50.826;4.380;2023-10-08T16:30:56;21.90;99.90
10788;DHT22;5446;50.826;4.380;2023-10-08T16:33:24;21.90;99.90